createdAt,value
2018-08-22T00:00:30.303Z,6.40
2018-08-22T00:02:59.057Z,6.33
2018-08-22T00:05:27.776Z,6.73
2018-08-22T00:07:56.999Z,6.90
2018-08-22T00:10:25.808Z,6.60
2018-08-22T00:12:55.654Z,8.37
2018-08-22T00:15:24.350Z,7.10
2018-08-22T00:17:53.568Z,8.30
2018-08-22T00:20:22.228Z,7.00
2018-08-22T00:22:51.001Z,7.10
2018-08-22T00:25:19.638Z,6.70
2018-08-22T00:27:48.284Z,6.33
2018-08-22T00:30:16.871Z,6.87
2018-08-22T00:32:45.468Z,6.27
2018-08-22T00:35:14.245Z,7.50
2018-08-22T00:37:42.918Z,6.87
2018-08-22T00:40:12.180Z,7.20
2018-08-22T00:42:41.454Z,6.53
2018-08-22T00:45:10.692Z,6.53
2018-08-22T00:47:39.860Z,6.50
2018-08-22T00:50:08.659Z,6.93
2018-08-22T00:52:37.267Z,6.33
2018-08-22T00:55:06.012Z,6.80
2018-08-22T00:57:34.769Z,6.63
2018-08-22T01:00:04.184Z,7.30
2018-08-22T01:02:33.311Z,7.33
2018-08-22T01:05:02.658Z,6.77
2018-08-22T01:07:32.755Z,6.77
2018-08-22T01:10:03.798Z,7.37
2018-08-22T01:12:33.127Z,6.67
2018-08-22T01:15:02.356Z,7.20
2018-08-22T01:17:31.685Z,6.93
2018-08-22T01:20:00.902Z,7.43
2018-08-22T01:22:30.305Z,7.53
2018-08-22T01:25:00.424Z,7.07
2018-08-22T01:27:29.931Z,7.70
2018-08-22T01:29:59.737Z,7.20
2018-08-22T01:32:29.254Z,7.20
2018-08-22T01:34:59.122Z,6.97
2018-08-22T01:37:27.787Z,6.80
2018-08-22T01:39:56.650Z,6.93
2018-08-22T01:42:26.095Z,7.77
2018-08-22T01:44:55.220Z,7.20
2018-08-22T01:47:23.806Z,8.10
2018-08-22T01:49:53.055Z,8.43
2018-08-22T01:52:21.784Z,8.60
2018-08-22T01:54:50.850Z,8.10
2018-08-22T01:57:20.734Z,7.53
2018-08-22T01:59:49.954Z,7.90
2018-08-22T02:02:18.611Z,7.77
2018-08-22T02:04:47.355Z,7.63
2018-08-22T02:07:16.129Z,7.37
2018-08-22T02:09:44.765Z,7.53
2018-08-22T02:12:14.044Z,7.13
2018-08-22T02:14:42.700Z,7.57
2018-08-22T02:17:11.750Z,7.70
2018-08-22T02:19:40.380Z,7.30
2018-08-22T02:22:09.120Z,6.67
2018-08-22T02:24:38.820Z,6.90
2018-08-22T02:27:08.900Z,7.60
2018-08-22T02:29:38.271Z,7.43
2018-08-22T02:32:08.098Z,7.33
2018-08-22T02:34:37.868Z,7.10
2018-08-22T02:37:08.533Z,7.67
2018-08-22T02:39:38.402Z,7.60
2018-08-22T02:42:07.047Z,6.73
2018-08-22T02:44:35.624Z,7.20
2018-08-22T02:47:05.185Z,7.80
2018-08-22T02:49:33.800Z,7.40
2018-08-22T02:52:02.428Z,7.30
2018-08-22T02:54:31.046Z,7.10
2018-08-22T02:57:00.152Z,7.37
2018-08-22T02:59:29.546Z,7.30
2018-08-22T03:01:58.242Z,7.40
2018-08-22T03:04:27.215Z,7.20
2018-08-22T03:06:56.437Z,7.20
2018-08-22T03:09:25.196Z,7.07
2018-08-22T03:11:54.247Z,7.30
2018-08-22T03:14:23.427Z,7.33
2018-08-22T03:16:52.423Z,8.57
2018-08-22T03:19:21.116Z,7.20
2018-08-22T03:21:50.686Z,7.57
2018-08-22T03:24:20.016Z,7.73
2018-08-22T03:26:49.271Z,7.87
2018-08-22T03:29:17.922Z,7.63
2018-08-22T03:31:47.291Z,8.03
2018-08-22T03:34:16.537Z,7.57
2018-08-22T03:36:46.129Z,7.60
2018-08-22T03:39:15.175Z,7.57
2018-08-22T03:41:44.252Z,7.00
2018-08-22T03:44:13.713Z,7.03
2018-08-22T03:46:43.040Z,7.37
2018-08-22T03:49:11.960Z,7.87
2018-08-22T03:51:44.352Z,7.33
2018-08-22T03:54:13.993Z,8.43
2018-08-22T03:56:43.496Z,7.40
2018-08-22T03:59:12.675Z,7.30
2018-08-22T04:01:41.856Z,7.27
2018-08-22T04:04:11.124Z,7.40
2018-08-22T04:06:40.193Z,7.30
2018-08-22T04:09:09.323Z,8.03
2018-08-22T04:11:38.480Z,7.83
2018-08-22T04:14:07.166Z,8.70
2018-08-22T04:16:36.207Z,9.90
2018-08-22T04:19:05.753Z,10.93
2018-08-22T04:21:34.600Z,11.27
2018-08-22T04:24:04.160Z,13.30
2018-08-22T04:26:33.346Z,14.90
2018-08-22T04:29:03.807Z,15.90
2018-08-22T04:31:32.662Z,17.77
2018-08-22T04:34:01.373Z,16.37
2018-08-22T04:36:30.046Z,16.70
2018-08-22T04:38:59.499Z,15.73
2018-08-22T04:41:28.165Z,15.37
2018-08-22T04:43:56.895Z,14.07
2018-08-22T04:46:26.168Z,12.73
2018-08-22T04:48:55.313Z,11.20
2018-08-22T04:51:24.700Z,8.90
2018-08-22T04:53:53.272Z,8.90
2018-08-22T04:56:22.397Z,8.80
2018-08-22T04:58:51.774Z,9.30
2018-08-22T05:01:20.540Z,7.90
2018-08-22T05:03:49.862Z,8.40
2018-08-22T05:06:18.495Z,8.10
2018-08-22T05:08:47.204Z,8.90
2018-08-22T05:11:15.889Z,8.03
2018-08-22T05:13:45.080Z,7.73
2018-08-22T05:16:13.772Z,8.17
2018-08-22T05:18:43.067Z,7.97
2018-08-22T05:21:11.713Z,8.70
2018-08-22T05:23:40.481Z,8.47
2018-08-22T05:26:09.421Z,8.23
2018-08-22T05:28:38.683Z,8.20
2018-08-22T05:31:07.924Z,8.83
2018-08-22T05:33:36.646Z,8.70
2018-08-22T05:36:05.576Z,9.73
2018-08-22T05:38:34.996Z,9.47
2018-08-22T05:41:04.142Z,10.10
2018-08-22T05:43:32.868Z,9.53
2018-08-22T05:46:01.629Z,10.10
2018-08-22T05:48:30.820Z,10.97
2018-08-22T05:51:00.160Z,10.40
2018-08-22T05:53:30.997Z,9.47
2018-08-22T05:56:00.581Z,10.30
2018-08-22T05:58:31.577Z,9.93
2018-08-22T06:01:01.229Z,10.70
2018-08-22T06:03:30.911Z,10.50
2018-08-22T06:05:59.607Z,9.80
2018-08-22T06:08:30.005Z,9.47
2018-08-22T06:10:59.530Z,10.30
2018-08-22T06:13:29.950Z,10.00
2018-08-22T06:16:00.774Z,10.47
2018-08-22T06:18:29.530Z,9.30
2018-08-22T06:20:58.152Z,10.00
2018-08-22T06:23:27.027Z,9.73
2018-08-22T06:25:56.184Z,9.70
2018-08-22T06:28:25.160Z,9.07
2018-08-22T06:30:53.826Z,8.63
2018-08-22T06:33:23.319Z,9.93
2018-08-22T06:35:52.688Z,9.23
2018-08-22T06:38:21.522Z,8.73
2018-08-22T06:40:50.770Z,9.60
2018-08-22T06:43:20.034Z,8.87
2018-08-22T06:45:49.078Z,8.50
2018-08-22T06:48:18.469Z,8.33
2018-08-22T06:50:47.669Z,7.60
2018-08-22T06:53:16.705Z,8.03
2018-08-22T06:55:46.185Z,7.60
2018-08-22T06:58:15.535Z,8.40
2018-08-22T07:00:45.153Z,7.37
2018-08-22T07:03:14.355Z,7.93
2018-08-22T07:05:44.699Z,8.90
2018-08-22T07:08:13.758Z,8.10
2018-08-22T07:10:43.044Z,8.73
2018-08-22T07:13:12.800Z,8.40
2018-08-22T07:15:42.865Z,7.27
2018-08-22T07:18:11.621Z,8.80
2018-08-22T07:20:40.766Z,9.00
2018-08-22T07:23:15.205Z,8.13
2018-08-22T07:25:44.457Z,9.43
2018-08-22T07:28:14.121Z,7.90
2018-08-22T07:30:43.118Z,8.53
2018-08-22T07:33:11.829Z,8.17
2018-08-22T07:35:41.125Z,8.33
2018-08-22T07:38:09.866Z,8.47
2018-08-22T07:40:39.198Z,8.77
2018-08-22T07:43:09.330Z,8.20
2018-08-22T07:45:38.043Z,7.40
2018-08-22T07:48:07.967Z,8.30
2018-08-22T07:50:42.045Z,8.10
2018-08-22T07:53:10.905Z,8.30
2018-08-22T07:55:41.801Z,8.10
2018-08-22T07:58:12.978Z,7.60
2018-08-22T08:00:41.791Z,8.50
2018-08-22T08:03:10.634Z,8.13
2018-08-22T08:05:40.059Z,7.73
2018-08-22T08:08:09.152Z,7.00
2018-08-22T08:10:38.529Z,7.47
2018-08-22T08:13:16.183Z,7.93
2018-08-22T08:15:44.892Z,7.50
2018-08-22T08:18:14.925Z,7.30
2018-08-22T08:20:43.980Z,6.57
2018-08-22T08:23:12.800Z,7.17
2018-08-22T08:25:41.405Z,7.20
2018-08-22T08:28:10.529Z,7.20
2018-08-22T08:30:39.333Z,6.77
2018-08-22T08:33:08.467Z,7.07
2018-08-22T08:35:38.515Z,7.03
2018-08-22T08:38:07.135Z,6.70
2018-08-22T08:40:36.164Z,6.97
2018-08-22T08:43:04.824Z,6.00
2018-08-22T08:45:33.448Z,6.33
2018-08-22T08:48:02.105Z,6.80
2018-08-22T08:50:30.851Z,6.77
2018-08-22T08:52:59.590Z,6.77
2018-08-22T08:55:28.491Z,6.40
2018-08-22T08:57:57.831Z,6.60
2018-08-22T09:00:26.455Z,6.63
2018-08-22T09:02:55.251Z,6.10
2018-08-22T09:05:24.261Z,6.53
2018-08-22T09:07:53.447Z,7.37
2018-08-22T09:10:22.398Z,6.30
2018-08-22T09:12:51.152Z,6.83
2018-08-22T09:15:19.908Z,5.83
2018-08-22T09:17:48.478Z,6.13
2018-08-22T09:20:17.659Z,6.40
2018-08-22T09:22:46.663Z,6.17
2018-08-22T09:25:15.787Z,6.60
2018-08-22T09:27:44.714Z,6.40
2018-08-22T09:30:13.973Z,6.40
2018-08-22T09:32:43.783Z,6.43
2018-08-22T09:35:13.803Z,6.47
2018-08-22T09:37:43.002Z,6.37
2018-08-22T09:40:11.856Z,6.60
2018-08-22T09:42:41.108Z,7.10
2018-08-22T09:45:11.006Z,6.67
2018-08-22T09:47:40.244Z,6.73
2018-08-22T09:50:09.412Z,6.70
2018-08-22T09:52:37.992Z,6.57
2018-08-22T09:55:07.969Z,6.70
2018-08-22T09:57:37.661Z,7.07
2018-08-22T10:00:12.730Z,6.73
2018-08-22T10:02:42.340Z,7.03
2018-08-22T10:05:12.419Z,7.80
2018-08-22T10:07:41.696Z,6.80
2018-08-22T10:10:11.778Z,6.60
2018-08-22T10:12:40.546Z,6.53
2018-08-22T10:15:09.209Z,6.70
2018-08-22T10:17:38.416Z,7.00
2018-08-22T10:20:07.546Z,7.20
2018-08-22T10:22:36.625Z,7.67
2018-08-22T10:25:05.714Z,7.13
2018-08-22T10:27:35.156Z,6.80
2018-08-22T10:30:05.453Z,7.60
2018-08-22T10:32:34.731Z,8.30
2018-08-22T10:35:04.107Z,7.20
2018-08-22T10:37:33.612Z,7.37
2018-08-22T10:40:02.411Z,7.90
2018-08-22T10:42:32.343Z,7.90
2018-08-22T10:45:01.535Z,7.23
2018-08-22T10:47:30.794Z,8.23
2018-08-22T10:49:59.943Z,7.60
2018-08-22T10:52:29.331Z,8.50
2018-08-22T10:54:59.423Z,8.20
2018-08-22T10:57:28.723Z,7.40
2018-08-22T10:59:58.084Z,7.40
2018-08-22T11:02:27.105Z,7.43
2018-08-22T11:04:56.444Z,7.93
2018-08-22T11:07:26.609Z,7.67
2018-08-22T11:09:55.962Z,7.57
2018-08-22T11:12:25.264Z,7.80
2018-08-22T11:14:54.661Z,7.23
2018-08-22T11:17:24.390Z,7.70
2018-08-22T11:19:53.768Z,7.37
2018-08-22T11:22:33.894Z,7.67
2018-08-22T11:25:13.930Z,7.13
2018-08-22T11:27:53.590Z,7.40
2018-08-22T11:30:33.417Z,8.00
2018-08-22T11:33:13.775Z,7.40
2018-08-22T11:35:41.709Z,7.37
2018-08-22T11:38:10.547Z,7.10
2018-08-22T11:40:39.491Z,7.40
2018-08-22T11:43:08.251Z,7.00
2018-08-22T11:45:36.837Z,7.40
2018-08-22T11:48:05.591Z,7.40
2018-08-22T11:50:34.200Z,7.33
2018-08-22T11:53:02.811Z,6.87
2018-08-22T11:55:31.610Z,7.60
2018-08-22T11:58:00.334Z,7.60
2018-08-22T12:00:29.051Z,7.43
2018-08-22T12:02:57.787Z,6.90
2018-08-22T12:05:26.583Z,6.83
2018-08-22T12:07:55.225Z,7.20
2018-08-22T12:10:28.207Z,7.57
2018-08-22T12:12:56.863Z,7.03
2018-08-22T12:15:25.554Z,7.80
2018-08-22T12:17:54.208Z,6.77
2018-08-22T12:20:23.138Z,8.00
2018-08-22T12:22:51.888Z,7.83
2018-08-22T12:25:25.733Z,7.47
2018-08-22T12:27:54.549Z,7.40
2018-08-22T12:30:23.223Z,7.70
2018-08-22T12:32:51.892Z,7.70
2018-08-22T12:35:20.505Z,6.53
2018-08-22T12:37:49.331Z,7.63
2018-08-22T12:40:18.504Z,7.63
2018-08-22T12:42:47.126Z,7.47
2018-08-22T12:45:16.503Z,7.73
2018-08-22T12:47:45.221Z,6.93
2018-08-22T12:50:14.497Z,7.37
2018-08-22T12:52:43.278Z,7.20
2018-08-22T12:55:12.276Z,7.03
2018-08-22T12:57:40.889Z,7.13
2018-08-22T13:00:09.650Z,7.20
2018-08-22T13:02:38.264Z,7.63
2018-08-22T13:05:06.927Z,6.70
2018-08-22T13:07:35.591Z,6.80
2018-08-22T13:10:04.405Z,7.13
2018-08-22T13:12:34.178Z,7.40
2018-08-22T13:15:02.883Z,7.37
2018-08-22T13:17:31.545Z,7.37
2018-08-22T13:20:00.273Z,6.80
2018-08-22T13:22:28.965Z,6.20
2018-08-22T13:24:57.615Z,6.77
2018-08-22T13:27:26.397Z,7.30
2018-08-22T13:29:55.750Z,7.40
2018-08-22T13:32:24.957Z,6.87
2018-08-22T13:34:53.656Z,6.43
2018-08-22T13:37:22.438Z,7.47
2018-08-22T13:39:51.618Z,6.90
2018-08-22T13:42:20.410Z,7.07
2018-08-22T13:44:48.859Z,6.53
2018-08-22T13:47:17.501Z,6.77
2018-08-22T13:49:46.262Z,7.13
2018-08-22T13:52:14.899Z,7.13
2018-08-22T13:54:43.568Z,6.63
2018-08-22T13:57:12.506Z,6.60
2018-08-22T13:59:41.247Z,8.00
2018-08-22T14:02:09.929Z,6.80
2018-08-22T14:04:38.706Z,6.60
2018-08-22T14:07:08.002Z,7.20
2018-08-22T14:09:36.609Z,6.80
2018-08-22T14:12:05.354Z,7.30
2018-08-22T14:14:34.050Z,8.53
2018-08-22T14:17:02.644Z,7.30
2018-08-22T14:19:31.267Z,7.63
2018-08-22T14:21:59.998Z,8.10
2018-08-22T14:24:28.688Z,7.97
2018-08-22T14:26:58.023Z,7.40
2018-08-22T14:29:26.699Z,7.53
2018-08-22T14:31:55.286Z,7.43
2018-08-22T14:34:23.995Z,7.17
2018-08-22T14:36:52.663Z,7.67
2018-08-22T14:39:21.683Z,8.40
2018-08-22T14:41:50.228Z,8.00
2018-08-22T14:44:18.948Z,7.90
2018-08-22T14:46:47.569Z,8.17
2018-08-22T14:49:16.491Z,7.90
2018-08-22T14:51:45.236Z,10.80
2018-08-22T14:54:13.969Z,7.43
2018-08-22T14:56:42.562Z,7.50
2018-08-22T14:59:11.279Z,8.37
2018-08-22T15:01:46.602Z,8.03
2018-08-22T15:04:16.095Z,8.20
2018-08-22T15:06:44.718Z,7.60
2018-08-22T15:09:19.665Z,8.10
2018-08-22T15:11:49.023Z,7.80
2018-08-22T15:14:17.724Z,6.63
2018-08-22T15:16:46.753Z,8.33
2018-08-22T15:19:15.391Z,9.50
2018-08-22T15:21:44.340Z,8.13
2018-08-22T15:24:13.060Z,8.90
2018-08-22T15:26:41.734Z,9.70
2018-08-22T15:29:10.524Z,7.90
2018-08-22T15:31:39.289Z,9.30
2018-08-22T15:34:08.049Z,7.80
2018-08-22T15:36:37.924Z,9.20
2018-08-22T15:39:08.287Z,6.40
2018-08-22T15:41:37.026Z,7.17
2018-08-22T15:44:05.798Z,7.50
2018-08-22T15:46:34.566Z,7.40
2018-08-22T15:49:03.792Z,7.60
2018-08-22T15:51:32.439Z,8.80
2018-08-22T15:54:14.144Z,8.87
2018-08-22T15:56:43.052Z,7.87
2018-08-22T15:59:12.507Z,7.23
2018-08-22T16:01:41.805Z,8.17
2018-08-22T16:04:11.131Z,9.77
2018-08-22T16:06:40.140Z,7.57
2018-08-22T16:09:16.194Z,8.87
2018-08-22T16:11:45.503Z,7.70
2018-08-22T16:14:14.145Z,7.70
2018-08-22T16:16:42.925Z,8.07
2018-08-22T16:19:12.139Z,8.00
2018-08-22T16:21:41.286Z,8.10
2018-08-22T16:24:10.575Z,7.93
2018-08-22T16:26:40.211Z,8.23
2018-08-22T16:29:09.078Z,7.73
2018-08-22T16:31:43.057Z,7.83
2018-08-22T16:34:12.464Z,9.13
2018-08-22T16:36:41.284Z,8.47
2018-08-22T16:39:10.527Z,8.30
2018-08-22T16:41:39.473Z,8.83
2018-08-22T16:44:08.283Z,8.30
2018-08-22T16:46:37.005Z,9.10
2018-08-22T16:49:05.843Z,8.80
2018-08-22T16:51:34.601Z,10.10
2018-08-22T16:54:09.402Z,10.37
2018-08-22T16:56:38.388Z,10.03
2018-08-22T16:59:15.381Z,9.90
2018-08-22T17:01:48.735Z,11.10
2018-08-22T17:04:17.583Z,10.70
2018-08-22T17:06:48.240Z,11.60
2018-08-22T17:09:16.875Z,11.40
2018-08-22T17:11:46.420Z,11.10
2018-08-22T17:14:15.394Z,12.47
2018-08-22T17:16:44.595Z,11.73
2018-08-22T17:19:13.910Z,10.97
2018-08-22T17:22:15.203Z,12.40
2018-08-22T17:28:01.295Z,12.80
2018-08-22T17:30:49.779Z,12.27
2018-08-22T17:34:27.233Z,10.77
2018-08-22T17:37:14.281Z,10.67
2018-08-22T17:40:11.985Z,9.90
2018-08-22T17:43:06.752Z,8.80
2018-08-22T17:56:27.470Z,8.97
2018-08-22T17:59:04.068Z,9.90
2018-08-22T18:02:13.786Z,9.00
2018-08-22T18:21:23.761Z,10.03
2018-08-22T18:23:57.708Z,9.57
2018-08-22T18:26:32.142Z,9.43
2018-08-22T18:29:04.152Z,11.40
2018-08-22T18:31:35.701Z,10.60
2018-08-22T18:34:07.179Z,10.10
2018-08-22T18:36:37.886Z,10.73
2018-08-22T18:39:12.528Z,9.60
2018-08-22T18:41:45.109Z,10.30
2018-08-22T18:44:19.545Z,10.67
2018-08-22T18:46:52.648Z,10.07
2018-08-22T18:54:45.625Z,10.73
2018-08-22T18:57:18.354Z,9.97
2018-08-22T18:59:58.040Z,10.27
2018-08-22T19:02:35.104Z,10.47
2018-08-22T19:05:21.606Z,11.60
2018-08-22T19:08:10.999Z,11.23
2018-08-22T19:13:44.305Z,10.40
2018-08-22T19:19:32.160Z,10.73
2018-08-22T19:25:07.486Z,10.93
2018-08-22T19:27:39.874Z,12.10
2018-08-22T19:30:18.672Z,10.90
2018-08-22T19:37:50.312Z,10.33
2018-08-22T19:40:23.990Z,10.90
2018-08-22T19:42:56.922Z,10.57
2018-08-22T19:45:37.935Z,11.10
2018-08-22T19:48:12.419Z,11.63
2018-08-22T19:50:46.137Z,10.37
2018-08-22T19:53:19.343Z,12.30
2018-08-22T19:55:51.662Z,11.50
2018-08-22T19:58:28.981Z,11.70
2018-08-22T20:01:02.069Z,10.43
2018-08-22T20:03:35.783Z,11.07
2018-08-22T20:06:20.316Z,11.03
2018-08-22T20:09:00.142Z,10.20
2018-08-22T20:11:29.643Z,10.63
2018-08-22T20:14:01.260Z,12.57
2018-08-22T20:16:30.135Z,13.00
2018-08-22T20:19:09.202Z,12.23
2018-08-22T20:21:40.055Z,11.87
2018-08-22T20:24:13.061Z,12.67
2018-08-22T20:26:55.797Z,12.10
2018-08-22T20:29:32.955Z,10.97
2018-08-22T20:32:04.117Z,10.70
2018-08-22T20:34:46.350Z,12.40
2018-08-22T20:37:15.963Z,11.70
2018-08-22T20:39:45.331Z,10.77
2018-08-22T20:42:14.791Z,11.83
2018-08-22T20:44:43.461Z,10.70
2018-08-22T20:47:12.134Z,11.30
2018-08-22T20:49:41.688Z,10.80
2018-08-22T20:52:11.885Z,10.60
2018-08-22T20:54:40.509Z,11.20
2018-08-22T20:57:10.523Z,10.70
2018-08-22T20:59:39.499Z,11.97
2018-08-22T21:02:09.112Z,10.90
2018-08-22T21:04:38.481Z,12.17
2018-08-22T21:07:07.731Z,11.13
2018-08-22T21:09:36.917Z,9.80
2018-08-22T21:12:06.295Z,11.20
2018-08-22T21:14:35.767Z,11.23
2018-08-22T21:17:04.344Z,9.77
2018-08-22T21:19:37.228Z,10.60
2018-08-22T21:22:20.513Z,10.17
2018-08-22T21:24:49.534Z,10.30
2018-08-22T21:27:18.920Z,10.50
2018-08-22T21:29:48.211Z,10.60
2018-08-22T21:32:18.068Z,11.20
2018-08-22T21:34:51.190Z,10.67
2018-08-22T21:37:26.021Z,11.30
2018-08-22T21:40:07.614Z,10.30
2018-08-22T21:42:36.799Z,11.70
2018-08-22T21:45:06.723Z,11.67
2018-08-22T21:47:36.028Z,13.80
2018-08-22T21:50:06.683Z,16.40
2018-08-22T21:53:04.320Z,16.80
2018-08-22T21:55:38.278Z,17.83
2018-08-22T21:58:07.753Z,17.90
2018-08-22T22:00:36.925Z,21.80
2018-08-22T22:03:05.858Z,19.30
2018-08-22T22:05:43.941Z,14.57
2018-08-22T22:08:18.260Z,13.87
2018-08-22T22:10:47.720Z,14.43
2018-08-22T22:13:16.778Z,12.90
2018-08-22T22:15:56.530Z,12.07
2018-08-22T22:18:26.492Z,11.10
2018-08-22T22:21:08.118Z,10.90
2018-08-22T22:23:51.503Z,11.33
2018-08-22T22:26:22.145Z,9.80
2018-08-22T22:28:50.992Z,10.50
2018-08-22T22:31:19.640Z,10.60
2018-08-22T22:34:07.837Z,10.63
2018-08-22T22:36:37.285Z,10.83
2018-08-22T22:39:13.293Z,11.10
2018-08-22T22:41:44.106Z,10.87
2018-08-22T22:44:13.980Z,11.50
2018-08-22T22:46:42.783Z,12.80
2018-08-22T22:49:11.706Z,13.93
2018-08-22T22:51:42.208Z,14.40
2018-08-22T22:54:12.244Z,15.37
2018-08-22T22:56:40.882Z,15.40
2018-08-22T22:59:09.553Z,14.00
2018-08-22T23:01:38.980Z,15.10
2018-08-22T23:04:08.417Z,13.90
2018-08-22T23:06:40.140Z,14.67
2018-08-22T23:09:09.403Z,13.73
2018-08-22T23:11:39.013Z,13.37
2018-08-22T23:14:07.841Z,12.63
2018-08-22T23:16:36.498Z,12.23
2018-08-22T23:19:11.397Z,12.50
2018-08-22T23:21:40.031Z,11.70
2018-08-22T23:24:17.536Z,12.37
2018-08-22T23:26:48.033Z,10.10
2018-08-22T23:29:16.690Z,11.70
2018-08-22T23:31:45.505Z,11.57
2018-08-22T23:34:19.765Z,10.93
2018-08-22T23:36:49.284Z,10.70
2018-08-22T23:39:18.697Z,10.60
2018-08-22T23:41:49.038Z,11.03
2018-08-22T23:44:17.683Z,10.07
2018-08-22T23:46:46.345Z,10.23
2018-08-22T23:49:15.726Z,11.20
2018-08-22T23:51:50.555Z,10.03
2018-08-22T23:54:20.496Z,9.93
2018-08-22T23:56:54.134Z,10.00
2018-08-22T23:59:23.878Z,10.73
